sensor_id;sensor_type;location;lat;lon;timestamp;P1;durP1;ratioP1;P2;durP2;ratioP2
20842;SDS011;26719;51.440;-2.574;2023-06-14T00:02:11;0.20;;;0.20;;
20842;SDS011;26719;51.440;-2.574;2023-06-14T00:04:37;0.20;;;0.20;;
20842;SDS011;26719;51.440;-2.574;2023-06-14T00:07:06;0.30;;;0.30;;
20842;SDS011;26719;51.440;-2.574;2023-06-14T00:09:33;0.30;;;0.30;;
20842;SDS011;26719;51.440;-2.574;2023-06-14T00:12:00;0.20;;;0.20;;
20842;SDS011;26719;51.440;-2.574;2023-06-14T00:14:26;0.30;;;0.30;;
20842;SDS011;26719;51.440;-2.574;2023-06-14T00:16:52;0.30;;;0.30;;
20842;SDS011;26719;51.440;-2.574;2023-06-14T00:19:24;0.30;;;0.30;;
20842;SDS011;26719;51.440;-2.574;2023-06-14T00:21:50;0.30;;;0.30;;
20842;SDS011;26719;51.440;-2.574;2023-06-14T00:24:17;0.30;;;0.30;;
20842;SDS011;26719;51.440;-2.574;2023-06-14T00:26:43;0.30;;;0.30;;
20842;SDS011;26719;51.440;-2.574;2023-06-14T00:29:10;0.30;;;0.30;;
20842;SDS011;26719;51.440;-2.574;2023-06-14T00:31:36;0.20;;;0.20;;
20842;SDS011;26719;51.440;-2.574;2023-06-14T00:34:02;0.20;;;0.20;;
20842;SDS011;26719;51.440;-2.574;2023-06-14T00:36:28;0.30;;;0.30;;
20842;SDS011;26719;51.440;-2.574;2023-06-14T00:38:54;0.20;;;0.20;;
20842;SDS011;26719;51.440;-2.574;2023-06-14T00:41:20;0.20;;;0.20;;
20842;SDS011;26719;51.440;-2.574;2023-06-14T00:43:46;0.10;;;0.10;;
20842;SDS011;26719;51.440;-2.574;2023-06-14T00:46:12;0.20;;;0.20;;
20842;SDS011;26719;51.440;-2.574;2023-06-14T00:48:38;0.23;;;0.23;;
20842;SDS011;26719;51.440;-2.574;2023-06-14T00:51:05;0.40;;;0.40;;
20842;SDS011;26719;51.440;-2.574;2023-06-14T00:53:31;0.30;;;0.30;;
20842;SDS011;26719;51.440;-2.574;2023-06-14T00:56:03;0.30;;;0.30;;
20842;SDS011;26719;51.440;-2.574;2023-06-14T00:58:29;0.20;;;0.20;;
20842;SDS011;26719;51.440;-2.574;2023-06-14T01:00:56;0.20;;;0.20;;
20842;SDS011;26719;51.440;-2.574;2023-06-14T01:03:23;0.20;;;0.20;;
20842;SDS011;26719;51.440;-2.574;2023-06-14T01:05:53;0.20;;;0.20;;
20842;SDS011;26719;51.440;-2.574;2023-06-14T01:08:46;0.20;;;0.20;;
20842;SDS011;26719;51.440;-2.574;2023-06-14T01:11:24;0.20;;;0.20;;
20842;SDS011;26719;51.440;-2.574;2023-06-14T01:13:52;0.20;;;0.20;;
20842;SDS011;26719;51.440;-2.574;2023-06-14T01:16:19;0.10;;;0.10;;
20842;SDS011;26719;51.440;-2.574;2023-06-14T01:18:45;0.20;;;0.20;;
20842;SDS011;26719;51.440;-2.574;2023-06-14T01:21:20;0.20;;;0.20;;
20842;SDS011;26719;51.440;-2.574;2023-06-14T01:23:46;0.20;;;0.20;;
20842;SDS011;26719;51.440;-2.574;2023-06-14T01:26:17;0.10;;;0.10;;
20842;SDS011;26719;51.440;-2.574;2023-06-14T01:28:43;0.20;;;0.20;;
20842;SDS011;26719;51.440;-2.574;2023-06-14T01:31:15;0.10;;;0.10;;
20842;SDS011;26719;51.440;-2.574;2023-06-14T01:33:42;0.20;;;0.20;;
20842;SDS011;26719;51.440;-2.574;2023-06-14T01:36:08;0.20;;;0.20;;
20842;SDS011;26719;51.440;-2.574;2023-06-14T01:38:34;0.20;;;0.20;;
20842;SDS011;26719;51.440;-2.574;2023-06-14T01:41:02;0.20;;;0.20;;
20842;SDS011;26719;51.440;-2.574;2023-06-14T01:43:29;0.10;;;0.10;;
20842;SDS011;26719;51.440;-2.574;2023-06-14T01:45:56;0.30;;;0.30;;
20842;SDS011;26719;51.440;-2.574;2023-06-14T01:48:23;0.20;;;0.20;;
20842;SDS011;26719;51.440;-2.574;2023-06-14T01:50:49;0.20;;;0.20;;
20842;SDS011;26719;51.440;-2.574;2023-06-14T01:53:15;0.20;;;0.20;;
20842;SDS011;26719;51.440;-2.574;2023-06-14T01:55:42;0.20;;;0.20;;
20842;SDS011;26719;51.440;-2.574;2023-06-14T01:58:11;0.20;;;0.20;;
20842;SDS011;26719;51.440;-2.574;2023-06-14T02:00:38;0.20;;;0.20;;
20842;SDS011;26719;51.440;-2.574;2023-06-14T02:03:05;0.30;;;0.30;;
20842;SDS011;26719;51.440;-2.574;2023-06-14T02:05:31;0.20;;;0.20;;
20842;SDS011;26719;51.440;-2.574;2023-06-14T02:07:59;0.20;;;0.20;;
20842;SDS011;26719;51.440;-2.574;2023-06-14T02:10:25;0.20;;;0.20;;
20842;SDS011;26719;51.440;-2.574;2023-06-14T02:12:51;0.20;;;0.20;;
20842;SDS011;26719;51.440;-2.574;2023-06-14T02:15:17;0.20;;;0.20;;
20842;SDS011;26719;51.440;-2.574;2023-06-14T02:17:44;0.20;;;0.20;;
20842;SDS011;26719;51.440;-2.574;2023-06-14T02:20:12;0.20;;;0.20;;
20842;SDS011;26719;51.440;-2.574;2023-06-14T02:22:38;0.20;;;0.20;;
20842;SDS011;26719;51.440;-2.574;2023-06-14T02:25:04;0.20;;;0.20;;
20842;SDS011;26719;51.440;-2.574;2023-06-14T02:27:31;0.30;;;0.30;;
20842;SDS011;26719;51.440;-2.574;2023-06-14T02:29:57;0.10;;;0.10;;
20842;SDS011;26719;51.440;-2.574;2023-06-14T02:32:23;0.20;;;0.20;;
20842;SDS011;26719;51.440;-2.574;2023-06-14T02:34:49;0.20;;;0.20;;
20842;SDS011;26719;51.440;-2.574;2023-06-14T02:37:16;0.20;;;0.20;;
20842;SDS011;26719;51.440;-2.574;2023-06-14T02:39:42;0.30;;;0.30;;
20842;SDS011;26719;51.440;-2.574;2023-06-14T02:42:08;0.23;;;0.23;;
20842;SDS011;26719;51.440;-2.574;2023-06-14T02:44:35;0.20;;;0.20;;
20842;SDS011;26719;51.440;-2.574;2023-06-14T02:47:01;0.10;;;0.10;;
20842;SDS011;26719;51.440;-2.574;2023-06-14T02:49:27;0.20;;;0.20;;
20842;SDS011;26719;51.440;-2.574;2023-06-14T02:51:54;0.20;;;0.20;;
20842;SDS011;26719;51.440;-2.574;2023-06-14T02:54:21;0.30;;;0.30;;
20842;SDS011;26719;51.440;-2.574;2023-06-14T02:56:47;0.30;;;0.30;;
20842;SDS011;26719;51.440;-2.574;2023-06-14T02:59:13;0.23;;;0.23;;
20842;SDS011;26719;51.440;-2.574;2023-06-14T03:01:40;0.30;;;0.30;;
20842;SDS011;26719;51.440;-2.574;2023-06-14T03:04:07;0.30;;;0.30;;
20842;SDS011;26719;51.440;-2.574;2023-06-14T03:06:33;0.27;;;0.27;;
20842;SDS011;26719;51.440;-2.574;2023-06-14T03:08:59;0.20;;;0.20;;
20842;SDS011;26719;51.440;-2.574;2023-06-14T03:11:29;0.20;;;0.20;;
20842;SDS011;26719;51.440;-2.574;2023-06-14T03:13:55;0.20;;;0.20;;
20842;SDS011;26719;51.440;-2.574;2023-06-14T03:16:22;0.20;;;0.20;;
20842;SDS011;26719;51.440;-2.574;2023-06-14T03:18:52;0.13;;;0.13;;
20842;SDS011;26719;51.440;-2.574;2023-06-14T03:21:18;0.20;;;0.20;;
20842;SDS011;26719;51.440;-2.574;2023-06-14T03:23:45;0.20;;;0.20;;
20842;SDS011;26719;51.440;-2.574;2023-06-14T03:26:11;0.13;;;0.13;;
20842;SDS011;26719;51.440;-2.574;2023-06-14T03:28:43;0.20;;;0.20;;
20842;SDS011;26719;51.440;-2.574;2023-06-14T03:31:10;0.20;;;0.20;;
20842;SDS011;26719;51.440;-2.574;2023-06-14T03:33:36;0.20;;;0.20;;
20842;SDS011;26719;51.440;-2.574;2023-06-14T03:36:02;0.10;;;0.10;;
20842;SDS011;26719;51.440;-2.574;2023-06-14T03:38:28;0.17;;;0.17;;
20842;SDS011;26719;51.440;-2.574;2023-06-14T03:40:55;0.10;;;0.10;;
20842;SDS011;26719;51.440;-2.574;2023-06-14T03:43:21;0.10;;;0.10;;
20842;SDS011;26719;51.440;-2.574;2023-06-14T03:45:47;0.10;;;0.10;;
20842;SDS011;26719;51.440;-2.574;2023-06-14T03:48:13;0.10;;;0.10;;
20842;SDS011;26719;51.440;-2.574;2023-06-14T03:50:39;0.00;;;0.00;;
20842;SDS011;26719;51.440;-2.574;2023-06-14T03:53:05;0.10;;;0.10;;
20842;SDS011;26719;51.440;-2.574;2023-06-14T03:55:31;0.10;;;0.10;;
20842;SDS011;26719;51.440;-2.574;2023-06-14T03:57:58;0.00;;;0.00;;
20842;SDS011;26719;51.440;-2.574;2023-06-14T04:00:24;0.00;;;0.00;;
20842;SDS011;26719;51.440;-2.574;2023-06-14T04:02:51;0.10;;;0.10;;
20842;SDS011;26719;51.440;-2.574;2023-06-14T04:05:17;0.10;;;0.10;;
20842;SDS011;26719;51.440;-2.574;2023-06-14T04:07:44;0.03;;;0.03;;
20842;SDS011;26719;51.440;-2.574;2023-06-14T04:10:13;0.03;;;0.03;;
20842;SDS011;26719;51.440;-2.574;2023-06-14T04:12:39;0.00;;;0.00;;
20842;SDS011;26719;51.440;-2.574;2023-06-14T04:15:05;0.00;;;0.00;;
20842;SDS011;26719;51.440;-2.574;2023-06-14T04:17:33;0.00;;;0.00;;
20842;SDS011;26719;51.440;-2.574;2023-06-14T04:19:59;0.00;;;0.00;;
20842;SDS011;26719;51.440;-2.574;2023-06-14T04:22:28;0.00;;;0.00;;
20842;SDS011;26719;51.440;-2.574;2023-06-14T04:24:55;0.10;;;0.10;;
20842;SDS011;26719;51.440;-2.574;2023-06-14T04:27:25;0.00;;;0.00;;
20842;SDS011;26719;51.440;-2.574;2023-06-14T04:29:52;0.10;;;0.10;;
20842;SDS011;26719;51.440;-2.574;2023-06-14T04:32:22;0.10;;;0.10;;
20842;SDS011;26719;51.440;-2.574;2023-06-14T04:34:50;0.10;;;0.10;;
20842;SDS011;26719;51.440;-2.574;2023-06-14T04:37:18;0.10;;;0.10;;
20842;SDS011;26719;51.440;-2.574;2023-06-14T04:39:46;0.10;;;0.10;;
20842;SDS011;26719;51.440;-2.574;2023-06-14T04:42:12;0.10;;;0.10;;
20842;SDS011;26719;51.440;-2.574;2023-06-14T04:44:39;0.10;;;0.10;;
20842;SDS011;26719;51.440;-2.574;2023-06-14T04:47:05;0.10;;;0.10;;
20842;SDS011;26719;51.440;-2.574;2023-06-14T04:49:31;0.10;;;0.10;;
20842;SDS011;26719;51.440;-2.574;2023-06-14T04:51:59;0.10;;;0.10;;
20842;SDS011;26719;51.440;-2.574;2023-06-14T04:54:26;0.10;;;0.10;;
20842;SDS011;26719;51.440;-2.574;2023-06-14T04:56:53;0.20;;;0.20;;
20842;SDS011;26719;51.440;-2.574;2023-06-14T04:59:20;0.17;;;0.17;;
20842;SDS011;26719;51.440;-2.574;2023-06-14T05:01:48;0.10;;;0.10;;
20842;SDS011;26719;51.440;-2.574;2023-06-14T05:04:15;0.20;;;0.20;;
20842;SDS011;26719;51.440;-2.574;2023-06-14T05:06:44;0.10;;;0.10;;
20842;SDS011;26719;51.440;-2.574;2023-06-14T05:09:11;0.10;;;0.10;;
20842;SDS011;26719;51.440;-2.574;2023-06-14T05:11:37;0.10;;;0.10;;
20842;SDS011;26719;51.440;-2.574;2023-06-14T05:14:03;0.10;;;0.10;;
20842;SDS011;26719;51.440;-2.574;2023-06-14T05:16:29;0.10;;;0.10;;
20842;SDS011;26719;51.440;-2.574;2023-06-14T05:18:55;0.10;;;0.10;;
20842;SDS011;26719;51.440;-2.574;2023-06-14T05:21:21;0.10;;;0.10;;
20842;SDS011;26719;51.440;-2.574;2023-06-14T05:23:47;0.20;;;0.20;;
20842;SDS011;26719;51.440;-2.574;2023-06-14T05:26:13;0.10;;;0.10;;
20842;SDS011;26719;51.440;-2.574;2023-06-14T05:28:39;0.10;;;0.10;;
20842;SDS011;26719;51.440;-2.574;2023-06-14T05:31:05;0.10;;;0.10;;
20842;SDS011;26719;51.440;-2.574;2023-06-14T05:33:31;0.10;;;0.10;;
20842;SDS011;26719;51.440;-2.574;2023-06-14T05:35:57;0.10;;;0.10;;
20842;SDS011;26719;51.440;-2.574;2023-06-14T05:38:23;0.10;;;0.10;;
20842;SDS011;26719;51.440;-2.574;2023-06-14T05:40:50;0.13;;;0.13;;
20842;SDS011;26719;51.440;-2.574;2023-06-14T05:43:16;0.10;;;0.10;;
20842;SDS011;26719;51.440;-2.574;2023-06-14T05:45:42;0.10;;;0.10;;
20842;SDS011;26719;51.440;-2.574;2023-06-14T05:48:08;0.10;;;0.10;;
20842;SDS011;26719;51.440;-2.574;2023-06-14T05:50:37;0.00;;;0.00;;
20842;SDS011;26719;51.440;-2.574;2023-06-14T05:53:03;0.10;;;0.10;;
20842;SDS011;26719;51.440;-2.574;2023-06-14T05:55:29;0.10;;;0.10;;
20842;SDS011;26719;51.440;-2.574;2023-06-14T05:57:56;0.10;;;0.10;;
20842;SDS011;26719;51.440;-2.574;2023-06-14T06:00:22;0.10;;;0.10;;
20842;SDS011;26719;51.440;-2.574;2023-06-14T06:02:48;0.10;;;0.10;;
20842;SDS011;26719;51.440;-2.574;2023-06-14T06:05:14;0.10;;;0.10;;
20842;SDS011;26719;51.440;-2.574;2023-06-14T06:07:40;0.10;;;0.10;;
20842;SDS011;26719;51.440;-2.574;2023-06-14T06:10:06;0.10;;;0.10;;
20842;SDS011;26719;51.440;-2.574;2023-06-14T06:12:33;0.10;;;0.10;;
20842;SDS011;26719;51.440;-2.574;2023-06-14T06:14:59;0.10;;;0.10;;
20842;SDS011;26719;51.440;-2.574;2023-06-14T06:17:26;0.10;;;0.10;;
20842;SDS011;26719;51.440;-2.574;2023-06-14T06:19:52;0.10;;;0.10;;
20842;SDS011;26719;51.440;-2.574;2023-06-14T06:22:18;0.10;;;0.10;;
20842;SDS011;26719;51.440;-2.574;2023-06-14T06:24:44;0.10;;;0.10;;
20842;SDS011;26719;51.440;-2.574;2023-06-14T06:27:10;0.10;;;0.10;;
20842;SDS011;26719;51.440;-2.574;2023-06-14T06:29:37;0.10;;;0.10;;
20842;SDS011;26719;51.440;-2.574;2023-06-14T06:32:03;0.10;;;0.10;;
20842;SDS011;26719;51.440;-2.574;2023-06-14T06:34:30;0.10;;;0.10;;
20842;SDS011;26719;51.440;-2.574;2023-06-14T06:36:56;0.13;;;0.13;;
20842;SDS011;26719;51.440;-2.574;2023-06-14T06:39:22;0.10;;;0.10;;
20842;SDS011;26719;51.440;-2.574;2023-06-14T06:41:48;0.10;;;0.10;;
20842;SDS011;26719;51.440;-2.574;2023-06-14T06:44:14;0.10;;;0.10;;
20842;SDS011;26719;51.440;-2.574;2023-06-14T06:46:43;0.10;;;0.10;;
20842;SDS011;26719;51.440;-2.574;2023-06-14T06:49:09;0.00;;;0.00;;
20842;SDS011;26719;51.440;-2.574;2023-06-14T06:51:37;0.10;;;0.10;;
20842;SDS011;26719;51.440;-2.574;2023-06-14T06:54:03;0.10;;;0.10;;
20842;SDS011;26719;51.440;-2.574;2023-06-14T06:56:31;0.10;;;0.10;;
20842;SDS011;26719;51.440;-2.574;2023-06-14T06:58:57;0.10;;;0.10;;
20842;SDS011;26719;51.440;-2.574;2023-06-14T07:01:23;0.10;;;0.10;;
20842;SDS011;26719;51.440;-2.574;2023-06-14T07:03:49;0.00;;;0.00;;
20842;SDS011;26719;51.440;-2.574;2023-06-14T07:06:15;0.00;;;0.00;;
20842;SDS011;26719;51.440;-2.574;2023-06-14T07:08:43;0.00;;;0.00;;
20842;SDS011;26719;51.440;-2.574;2023-06-14T07:11:10;0.10;;;0.10;;
20842;SDS011;26719;51.440;-2.574;2023-06-14T07:13:36;0.10;;;0.10;;
20842;SDS011;26719;51.440;-2.574;2023-06-14T07:16:04;0.10;;;0.10;;
20842;SDS011;26719;51.440;-2.574;2023-06-14T07:18:30;0.00;;;0.00;;
20842;SDS011;26719;51.440;-2.574;2023-06-14T07:20:56;0.10;;;0.10;;
20842;SDS011;26719;51.440;-2.574;2023-06-14T07:23:23;0.10;;;0.10;;
20842;SDS011;26719;51.440;-2.574;2023-06-14T07:25:49;0.10;;;0.10;;
20842;SDS011;26719;51.440;-2.574;2023-06-14T07:28:16;0.00;;;0.00;;
20842;SDS011;26719;51.440;-2.574;2023-06-14T07:30:42;0.10;;;0.10;;
20842;SDS011;26719;51.440;-2.574;2023-06-14T07:33:08;0.00;;;0.00;;
20842;SDS011;26719;51.440;-2.574;2023-06-14T07:35:36;0.10;;;0.10;;
20842;SDS011;26719;51.440;-2.574;2023-06-14T07:38:02;0.10;;;0.10;;
20842;SDS011;26719;51.440;-2.574;2023-06-14T07:40:28;0.00;;;0.00;;
20842;SDS011;26719;51.440;-2.574;2023-06-14T07:42:54;0.10;;;0.10;;
20842;SDS011;26719;51.440;-2.574;2023-06-14T07:45:20;0.00;;;0.00;;
20842;SDS011;26719;51.440;-2.574;2023-06-14T07:47:46;0.00;;;0.00;;
20842;SDS011;26719;51.440;-2.574;2023-06-14T07:50:12;0.10;;;0.10;;
20842;SDS011;26719;51.440;-2.574;2023-06-14T07:52:39;0.00;;;0.00;;
20842;SDS011;26719;51.440;-2.574;2023-06-14T07:55:05;0.10;;;0.10;;
20842;SDS011;26719;51.440;-2.574;2023-06-14T07:57:31;0.07;;;0.07;;
20842;SDS011;26719;51.440;-2.574;2023-06-14T07:59:57;0.00;;;0.00;;
20842;SDS011;26719;51.440;-2.574;2023-06-14T08:02:23;0.10;;;0.10;;
20842;SDS011;26719;51.440;-2.574;2023-06-14T08:04:49;0.10;;;0.10;;
20842;SDS011;26719;51.440;-2.574;2023-06-14T08:07:15;0.10;;;0.10;;
20842;SDS011;26719;51.440;-2.574;2023-06-14T08:09:41;0.10;;;0.10;;
20842;SDS011;26719;51.440;-2.574;2023-06-14T08:12:07;0.10;;;0.10;;
20842;SDS011;26719;51.440;-2.574;2023-06-14T08:14:35;0.10;;;0.10;;
20842;SDS011;26719;51.440;-2.574;2023-06-14T08:17:01;0.10;;;0.10;;
20842;SDS011;26719;51.440;-2.574;2023-06-14T08:19:27;0.10;;;0.10;;
20842;SDS011;26719;51.440;-2.574;2023-06-14T08:21:53;0.10;;;0.10;;
20842;SDS011;26719;51.440;-2.574;2023-06-14T08:24:23;0.03;;;0.03;;
20842;SDS011;26719;51.440;-2.574;2023-06-14T08:26:49;0.10;;;0.10;;
20842;SDS011;26719;51.440;-2.574;2023-06-14T08:29:15;0.10;;;0.10;;
20842;SDS011;26719;51.440;-2.574;2023-06-14T08:31:41;0.10;;;0.10;;
20842;SDS011;26719;51.440;-2.574;2023-06-14T08:34:07;0.10;;;0.10;;
20842;SDS011;26719;51.440;-2.574;2023-06-14T08:36:34;0.10;;;0.10;;
20842;SDS011;26719;51.440;-2.574;2023-06-14T08:39:01;0.10;;;0.10;;
20842;SDS011;26719;51.440;-2.574;2023-06-14T08:41:27;0.10;;;0.10;;
20842;SDS011;26719;51.440;-2.574;2023-06-14T08:43:54;0.10;;;0.10;;
20842;SDS011;26719;51.440;-2.574;2023-06-14T08:46:20;0.10;;;0.10;;
20842;SDS011;26719;51.440;-2.574;2023-06-14T08:48:51;0.10;;;0.10;;
20842;SDS011;26719;51.440;-2.574;2023-06-14T08:51:22;0.20;;;0.20;;
20842;SDS011;26719;51.440;-2.574;2023-06-14T08:53:52;0.10;;;0.10;;
20842;SDS011;26719;51.440;-2.574;2023-06-14T08:56:23;0.10;;;0.10;;
20842;SDS011;26719;51.440;-2.574;2023-06-14T08:58:51;0.20;;;0.20;;
20842;SDS011;26719;51.440;-2.574;2023-06-14T09:01:17;0.10;;;0.10;;
20842;SDS011;26719;51.440;-2.574;2023-06-14T09:03:44;0.10;;;0.10;;
20842;SDS011;26719;51.440;-2.574;2023-06-14T09:06:10;0.20;;;0.20;;
20842;SDS011;26719;51.440;-2.574;2023-06-14T09:08:42;0.10;;;0.10;;
20842;SDS011;26719;51.440;-2.574;2023-06-14T09:11:10;0.10;;;0.10;;
20842;SDS011;26719;51.440;-2.574;2023-06-14T09:13:37;0.20;;;0.20;;
20842;SDS011;26719;51.440;-2.574;2023-06-14T09:16:03;0.20;;;0.20;;
20842;SDS011;26719;51.440;-2.574;2023-06-14T09:18:37;0.10;;;0.10;;
20842;SDS011;26719;51.440;-2.574;2023-06-14T09:21:05;0.20;;;0.20;;
20842;SDS011;26719;51.440;-2.574;2023-06-14T09:23:38;0.17;;;0.17;;
20842;SDS011;26719;51.440;-2.574;2023-06-14T09:26:09;0.20;;;0.20;;
20842;SDS011;26719;51.440;-2.574;2023-06-14T09:28:35;0.10;;;0.10;;
20842;SDS011;26719;51.440;-2.574;2023-06-14T09:31:02;0.20;;;0.20;;
20842;SDS011;26719;51.440;-2.574;2023-06-14T09:33:28;0.10;;;0.10;;
20842;SDS011;26719;51.440;-2.574;2023-06-14T09:35:54;0.20;;;0.20;;
20842;SDS011;26719;51.440;-2.574;2023-06-14T09:38:24;0.20;;;0.20;;
20842;SDS011;26719;51.440;-2.574;2023-06-14T09:40:51;0.20;;;0.20;;
20842;SDS011;26719;51.440;-2.574;2023-06-14T09:43:17;0.20;;;0.20;;
20842;SDS011;26719;51.440;-2.574;2023-06-14T09:45:44;0.40;;;0.40;;
20842;SDS011;26719;51.440;-2.574;2023-06-14T09:48:11;0.30;;;0.30;;
20842;SDS011;26719;51.440;-2.574;2023-06-14T09:50:42;0.40;;;0.40;;
20842;SDS011;26719;51.440;-2.574;2023-06-14T09:53:10;0.30;;;0.30;;
20842;SDS011;26719;51.440;-2.574;2023-06-14T09:55:36;0.30;;;0.30;;
20842;SDS011;26719;51.440;-2.574;2023-06-14T09:58:06;0.37;;;0.37;;
20842;SDS011;26719;51.440;-2.574;2023-06-14T10:00:33;0.30;;;0.30;;
20842;SDS011;26719;51.440;-2.574;2023-06-14T10:03:08;0.40;;;0.40;;
20842;SDS011;26719;51.440;-2.574;2023-06-14T10:05:36;0.40;;;0.40;;
20842;SDS011;26719;51.440;-2.574;2023-06-14T10:08:04;0.40;;;0.40;;
20842;SDS011;26719;51.440;-2.574;2023-06-14T10:10:30;0.50;;;0.50;;
20842;SDS011;26719;51.440;-2.574;2023-06-14T10:12:57;0.40;;;0.40;;
20842;SDS011;26719;51.440;-2.574;2023-06-14T10:15:33;0.30;;;0.30;;
20842;SDS011;26719;51.440;-2.574;2023-06-14T10:18:09;0.40;;;0.40;;
20842;SDS011;26719;51.440;-2.574;2023-06-14T10:20:41;0.40;;;0.40;;
20842;SDS011;26719;51.440;-2.574;2023-06-14T10:23:16;0.50;;;0.50;;
20842;SDS011;26719;51.440;-2.574;2023-06-14T10:25:43;0.60;;;0.60;;
20842;SDS011;26719;51.440;-2.574;2023-06-14T10:28:19;0.43;;;0.43;;
20842;SDS011;26719;51.440;-2.574;2023-06-14T10:31:07;0.57;;;0.57;;
20842;SDS011;26719;51.440;-2.574;2023-06-14T10:33:34;0.43;;;0.43;;
20842;SDS011;26719;51.440;-2.574;2023-06-14T10:36:06;0.70;;;0.70;;
20842;SDS011;26719;51.440;-2.574;2023-06-14T10:38:33;0.67;;;0.67;;
20842;SDS011;26719;51.440;-2.574;2023-06-14T10:41:00;0.60;;;0.60;;
20842;SDS011;26719;51.440;-2.574;2023-06-14T10:43:26;0.40;;;0.40;;
20842;SDS011;26719;51.440;-2.574;2023-06-14T10:46:11;0.50;;;0.50;;
20842;SDS011;26719;51.440;-2.574;2023-06-14T10:48:40;0.50;;;0.50;;
20842;SDS011;26719;51.440;-2.574;2023-06-14T10:51:14;0.80;;;0.80;;
20842;SDS011;26719;51.440;-2.574;2023-06-14T10:53:45;0.60;;;0.60;;
20842;SDS011;26719;51.440;-2.574;2023-06-14T10:56:22;0.60;;;0.60;;
20842;SDS011;26719;51.440;-2.574;2023-06-14T10:58:49;0.60;;;0.60;;
20842;SDS011;26719;51.440;-2.574;2023-06-14T11:01:16;0.70;;;0.70;;
20842;SDS011;26719;51.440;-2.574;2023-06-14T11:03:54;0.60;;;0.60;;
20842;SDS011;26719;51.440;-2.574;2023-06-14T11:06:21;0.70;;;0.70;;
20842;SDS011;26719;51.440;-2.574;2023-06-14T11:11:59;0.60;;;0.60;;
20842;SDS011;26719;51.440;-2.574;2023-06-14T11:14:29;0.67;;;0.67;;
20842;SDS011;26719;51.440;-2.574;2023-06-14T11:16:55;0.65;;;0.65;;
20842;SDS011;26719;51.440;-2.574;2023-06-14T11:19:21;0.60;;;0.60;;
20842;SDS011;26719;51.440;-2.574;2023-06-14T11:21:48;0.50;;;0.50;;
20842;SDS011;26719;51.440;-2.574;2023-06-14T11:24:14;0.50;;;0.50;;
20842;SDS011;26719;51.440;-2.574;2023-06-14T11:26:40;0.57;;;0.57;;
20842;SDS011;26719;51.440;-2.574;2023-06-14T11:29:06;0.60;;;0.60;;
20842;SDS011;26719;51.440;-2.574;2023-06-14T11:31:32;0.60;;;0.60;;
20842;SDS011;26719;51.440;-2.574;2023-06-14T11:33:59;0.60;;;0.60;;
20842;SDS011;26719;51.440;-2.574;2023-06-14T11:36:26;0.60;;;0.60;;
20842;SDS011;26719;51.440;-2.574;2023-06-14T11:41:31;0.57;;;0.57;;
20842;SDS011;26719;51.440;-2.574;2023-06-14T11:43:59;0.60;;;0.60;;
20842;SDS011;26719;51.440;-2.574;2023-06-14T11:46:25;0.65;;;0.65;;
20842;SDS011;26719;51.440;-2.574;2023-06-14T11:48:51;0.63;;;0.63;;
20842;SDS011;26719;51.440;-2.574;2023-06-14T11:51:18;0.60;;;0.60;;
20842;SDS011;26719;51.440;-2.574;2023-06-14T11:53:45;0.60;;;0.60;;
20842;SDS011;26719;51.440;-2.574;2023-06-14T11:56:12;0.50;;;0.50;;
20842;SDS011;26719;51.440;-2.574;2023-06-14T11:58:38;0.57;;;0.57;;
20842;SDS011;26719;51.440;-2.574;2023-06-14T12:01:05;0.60;;;0.60;;
20842;SDS011;26719;51.440;-2.574;2023-06-14T12:03:31;0.60;;;0.60;;
20842;SDS011;26719;51.440;-2.574;2023-06-14T12:06:07;0.50;;;0.50;;
20842;SDS011;26719;51.440;-2.574;2023-06-14T12:08:36;0.50;;;0.50;;
20842;SDS011;26719;51.440;-2.574;2023-06-14T12:11:05;0.50;;;0.50;;
20842;SDS011;26719;51.440;-2.574;2023-06-14T12:13:31;0.50;;;0.50;;
20842;SDS011;26719;51.440;-2.574;2023-06-14T12:15:57;0.60;;;0.60;;
20842;SDS011;26719;51.440;-2.574;2023-06-14T12:18:33;0.60;;;0.60;;
20842;SDS011;26719;51.440;-2.574;2023-06-14T12:20:59;0.57;;;0.57;;
20842;SDS011;26719;51.440;-2.574;2023-06-14T12:23:43;0.55;;;0.55;;
20842;SDS011;26719;51.440;-2.574;2023-06-14T12:26:12;0.60;;;0.60;;
20842;SDS011;26719;51.440;-2.574;2023-06-14T12:28:39;0.50;;;0.50;;
20842;SDS011;26719;51.440;-2.574;2023-06-14T12:31:06;0.50;;;0.50;;
20842;SDS011;26719;51.440;-2.574;2023-06-14T12:33:32;0.50;;;0.50;;
20842;SDS011;26719;51.440;-2.574;2023-06-14T12:35:58;0.55;;;0.55;;
20842;SDS011;26719;51.440;-2.574;2023-06-14T12:38:24;0.40;;;0.40;;
20842;SDS011;26719;51.440;-2.574;2023-06-14T12:40:50;0.40;;;0.40;;
20842;SDS011;26719;51.440;-2.574;2023-06-14T12:43:17;0.55;;;0.55;;
20842;SDS011;26719;51.440;-2.574;2023-06-14T12:45:43;0.50;;;0.50;;
20842;SDS011;26719;51.440;-2.574;2023-06-14T12:48:09;0.70;;;0.70;;
20842;SDS011;26719;51.440;-2.574;2023-06-14T12:50:35;0.40;;;0.40;;
20842;SDS011;26719;51.440;-2.574;2023-06-14T12:53:01;0.60;;;0.60;;
20842;SDS011;26719;51.440;-2.574;2023-06-14T12:55:27;0.50;;;0.50;;
20842;SDS011;26719;51.440;-2.574;2023-06-14T12:57:53;0.55;;;0.55;;
20842;SDS011;26719;51.440;-2.574;2023-06-14T13:00:19;0.50;;;0.50;;
20842;SDS011;26719;51.440;-2.574;2023-06-14T13:02:46;0.43;;;0.43;;
20842;SDS011;26719;51.440;-2.574;2023-06-14T13:05:12;0.57;;;0.57;;
20842;SDS011;26719;51.440;-2.574;2023-06-14T13:07:38;0.60;;;0.60;;
20842;SDS011;26719;51.440;-2.574;2023-06-14T13:10:05;0.50;;;0.50;;
20842;SDS011;26719;51.440;-2.574;2023-06-14T13:12:31;0.50;;;0.50;;
20842;SDS011;26719;51.440;-2.574;2023-06-14T13:14:57;0.50;;;0.50;;
20842;SDS011;26719;51.440;-2.574;2023-06-14T13:17:23;0.50;;;0.50;;
20842;SDS011;26719;51.440;-2.574;2023-06-14T13:19:49;0.50;;;0.50;;
20842;SDS011;26719;51.440;-2.574;2023-06-14T13:22:15;0.50;;;0.50;;
20842;SDS011;26719;51.440;-2.574;2023-06-14T13:24:41;0.50;;;0.50;;
20842;SDS011;26719;51.440;-2.574;2023-06-14T13:27:07;0.65;;;0.65;;
20842;SDS011;26719;51.440;-2.574;2023-06-14T13:29:33;0.60;;;0.60;;
20842;SDS011;26719;51.440;-2.574;2023-06-14T13:32:01;0.60;;;0.60;;
20842;SDS011;26719;51.440;-2.574;2023-06-14T13:34:27;0.40;;;0.40;;
20842;SDS011;26719;51.440;-2.574;2023-06-14T13:36:53;0.60;;;0.60;;
20842;SDS011;26719;51.440;-2.574;2023-06-14T13:39:19;0.60;;;0.60;;
20842;SDS011;26719;51.440;-2.574;2023-06-14T13:41:45;0.50;;;0.50;;
20842;SDS011;26719;51.440;-2.574;2023-06-14T13:44:11;0.60;;;0.60;;
20842;SDS011;26719;51.440;-2.574;2023-06-14T13:46:39;0.60;;;0.60;;
20842;SDS011;26719;51.440;-2.574;2023-06-14T13:49:07;0.60;;;0.60;;
20842;SDS011;26719;51.440;-2.574;2023-06-14T13:51:33;0.60;;;0.60;;
20842;SDS011;26719;51.440;-2.574;2023-06-14T13:54:00;0.57;;;0.57;;
20842;SDS011;26719;51.440;-2.574;2023-06-14T13:56:26;0.60;;;0.60;;
20842;SDS011;26719;51.440;-2.574;2023-06-14T13:58:52;0.50;;;0.50;;
20842;SDS011;26719;51.440;-2.574;2023-06-14T14:01:18;0.50;;;0.50;;
20842;SDS011;26719;51.440;-2.574;2023-06-14T14:03:48;0.60;;;0.60;;
20842;SDS011;26719;51.440;-2.574;2023-06-14T14:06:15;0.50;;;0.50;;
20842;SDS011;26719;51.440;-2.574;2023-06-14T14:08:41;0.60;;;0.60;;
20842;SDS011;26719;51.440;-2.574;2023-06-14T14:11:07;0.40;;;0.40;;
20842;SDS011;26719;51.440;-2.574;2023-06-14T14:13:34;0.55;;;0.55;;
20842;SDS011;26719;51.440;-2.574;2023-06-14T14:16:01;0.60;;;0.60;;
20842;SDS011;26719;51.440;-2.574;2023-06-14T14:18:28;0.57;;;0.57;;
20842;SDS011;26719;51.440;-2.574;2023-06-14T14:20:54;0.47;;;0.47;;
20842;SDS011;26719;51.440;-2.574;2023-06-14T14:23:21;0.50;;;0.50;;
20842;SDS011;26719;51.440;-2.574;2023-06-14T14:25:47;0.52;;;0.52;;
20842;SDS011;26719;51.440;-2.574;2023-06-14T14:28:13;0.63;;;0.63;;
20842;SDS011;26719;51.440;-2.574;2023-06-14T14:30:41;0.50;;;0.50;;
20842;SDS011;26719;51.440;-2.574;2023-06-14T14:33:07;0.50;;;0.50;;
20842;SDS011;26719;51.440;-2.574;2023-06-14T14:35:33;0.50;;;0.50;;
20842;SDS011;26719;51.440;-2.574;2023-06-14T14:37:59;0.50;;;0.50;;
20842;SDS011;26719;51.440;-2.574;2023-06-14T14:40:28;0.60;;;0.60;;